Greenwood, Maine
Current Conditions -  °F | °C
As of 7:24 AM on Tuesday 27 Jan 2015 (Local Time) from KBML Reporting Station
Light Snow Light Snow  
Wind Chill: -2°   Ceiling: 2400
Heat Index:   Visibility: 1.7mi
Dew Point: -3°   Wind: 6mph
Humidity: 61%   Direction: 340°NNW
Pressure: 29.83"   Gusts: NA
Location:  44.4002°N, 70.7026°W
Report Text: KBML 271224Z AUTO 34005KT 1 3/4SM -SN OVC024 M13/M19 A2983 RMK AO2 P0000 T11331194
Loading
Personal Weather Stations






























Interactive Weather Map New forecast layout! Learn more

10-Day Weather Forecast

Advertisements
Track Severe Weather on mobile